createdAt,value
2023-07-06T00:01:57.567Z,3.80
2023-07-06T00:21:34.463Z,3.30
2023-07-06T00:28:11.958Z,3.40
2023-07-06T00:35:57.683Z,4.00
2023-07-06T00:39:48.936Z,3.50
2023-07-06T00:42:25.021Z,3.10
2023-07-06T00:44:54.404Z,3.80
2023-07-06T00:47:29.250Z,3.60
2023-07-06T00:49:58.253Z,3.20
2023-07-06T00:52:25.163Z,3.40
2023-07-06T00:54:52.978Z,3.30
2023-07-06T00:57:22.264Z,3.30
2023-07-06T00:59:50.970Z,3.20
2023-07-06T01:02:20.655Z,3.60
2023-07-06T01:04:47.721Z,2.90
2023-07-06T01:07:20.831Z,3.20
2023-07-06T01:09:48.562Z,3.80
2023-07-06T01:12:16.367Z,3.90
2023-07-06T01:14:43.751Z,3.80
2023-07-06T01:17:56.506Z,3.70
2023-07-06T01:20:43.234Z,3.50
2023-07-06T01:23:30.755Z,2.90
2023-07-06T01:26:14.625Z,3.30
2023-07-06T01:28:52.453Z,3.00
2023-07-06T01:31:32.105Z,3.70
2023-07-06T01:34:10.516Z,3.50
2023-07-06T01:36:44.522Z,4.00
2023-07-06T01:39:13.374Z,4.70
2023-07-06T01:41:41.613Z,4.30
2023-07-06T01:44:13.297Z,4.50
2023-07-06T01:46:47.305Z,4.60
2023-07-06T01:51:52.626Z,4.70
2023-07-06T01:54:26.070Z,4.70
2023-07-06T01:57:01.192Z,5.30
2023-07-06T01:59:33.367Z,6.30
2023-07-06T02:02:03.660Z,6.10
2023-07-06T02:04:33.586Z,6.30
2023-07-06T02:07:03.807Z,5.70
2023-07-06T02:09:30.946Z,6.50
2023-07-06T02:11:58.671Z,5.90
2023-07-06T02:14:27.057Z,6.20
2023-07-06T02:16:54.231Z,6.50
2023-07-06T02:19:22.344Z,6.40
2023-07-06T02:21:51.006Z,6.80
2023-07-06T02:24:29.258Z,6.40
2023-07-06T02:26:59.583Z,6.40
2023-07-06T02:29:29.646Z,6.30
2023-07-06T02:31:56.631Z,6.40
2023-07-06T02:34:26.655Z,6.60
2023-07-06T02:36:56.145Z,6.40
2023-07-06T02:39:26.152Z,5.80
2023-07-06T02:41:54.329Z,6.20
2023-07-06T02:44:22.300Z,6.50
2023-07-06T02:46:49.770Z,7.40
2023-07-06T02:49:17.703Z,6.10
2023-07-06T02:51:46.001Z,5.80
2023-07-06T02:54:16.414Z,5.90
2023-07-06T02:56:43.857Z,5.70
2023-07-06T02:59:12.047Z,6.20
2023-07-06T03:01:38.951Z,6.10
2023-07-06T03:04:10.910Z,6.40
2023-07-06T03:06:39.683Z,6.80
2023-07-06T03:09:08.763Z,6.40
2023-07-06T03:11:37.642Z,6.00
2023-07-06T03:14:05.291Z,5.80
2023-07-06T03:16:41.698Z,5.80
2023-07-06T03:19:11.796Z,5.60
2023-07-06T03:21:40.204Z,5.00
2023-07-06T03:24:08.587Z,5.70
2023-07-06T03:26:38.070Z,5.20
2023-07-06T03:29:06.950Z,5.70
2023-07-06T03:31:34.403Z,4.90
2023-07-06T03:34:03.080Z,5.00
2023-07-06T03:36:34.871Z,4.80
2023-07-06T03:39:02.789Z,4.50
2023-07-06T03:41:31.141Z,4.70
2023-07-06T03:44:00.022Z,4.90
2023-07-06T03:46:32.910Z,4.90
2023-07-06T03:48:59.955Z,5.10
2023-07-06T03:51:26.921Z,5.00
2023-07-06T03:53:53.813Z,4.30
2023-07-06T03:56:28.879Z,4.40
2023-07-06T03:58:58.315Z,4.40
2023-07-06T04:01:28.368Z,4.30
2023-07-06T04:03:57.415Z,4.60
2023-07-06T04:06:26.706Z,4.50
2023-07-06T04:09:00.894Z,4.20
2023-07-06T04:11:27.766Z,4.50
2023-07-06T04:13:59.125Z,4.20
2023-07-06T04:16:27.369Z,4.60
2023-07-06T04:18:54.482Z,4.30
2023-07-06T04:21:21.416Z,3.40
2023-07-06T04:23:49.193Z,4.10
2023-07-06T04:26:17.964Z,3.60
2023-07-06T04:28:46.124Z,4.00
2023-07-06T04:31:16.086Z,3.80
2023-07-06T04:33:47.426Z,3.90
2023-07-06T04:36:18.918Z,3.80
2023-07-06T04:38:46.565Z,4.10
2023-07-06T04:41:13.758Z,4.00
2023-07-06T04:43:41.082Z,3.60
2023-07-06T04:46:09.853Z,4.00
2023-07-06T04:48:37.805Z,3.80
2023-07-06T04:51:07.585Z,3.90
2023-07-06T04:53:34.535Z,3.60
2023-07-06T04:56:02.161Z,3.30
2023-07-06T04:58:31.859Z,3.40
2023-07-06T05:01:03.909Z,3.90
2023-07-06T05:03:33.436Z,3.80
2023-07-06T05:06:06.195Z,3.90
2023-07-06T05:08:33.441Z,3.40
2023-07-06T05:11:00.786Z,3.20
2023-07-06T05:13:27.984Z,3.80
2023-07-06T05:15:55.509Z,3.30
2023-07-06T05:18:25.340Z,3.30
2023-07-06T05:20:58.664Z,3.50
2023-07-06T05:26:04.238Z,3.30
2023-07-06T05:28:35.461Z,2.70
2023-07-06T05:31:05.045Z,3.00
2023-07-06T05:33:34.290Z,2.90
2023-07-06T05:36:02.314Z,3.10
2023-07-06T05:38:31.157Z,3.20
2023-07-06T05:41:04.295Z,3.50
2023-07-06T05:43:31.746Z,3.20
2023-07-06T05:46:01.378Z,3.10
2023-07-06T05:48:28.272Z,3.20
2023-07-06T05:50:55.194Z,3.50
2023-07-06T05:53:22.633Z,2.80
2023-07-06T05:55:53.048Z,3.20
2023-07-06T05:58:21.554Z,2.80
2023-07-06T06:00:48.878Z,3.40
2023-07-06T06:03:19.817Z,3.00
2023-07-06T06:05:47.285Z,3.10
2023-07-06T06:08:14.439Z,3.20
2023-07-06T06:10:41.295Z,2.80
2023-07-06T06:13:08.108Z,2.70
2023-07-06T06:15:36.576Z,2.60
2023-07-06T06:18:07.499Z,2.90
2023-07-06T06:20:34.359Z,3.00
2023-07-06T06:23:04.704Z,2.60
2023-07-06T06:25:31.534Z,2.90
2023-07-06T06:27:58.337Z,2.60
2023-07-06T06:30:25.394Z,2.70
2023-07-06T06:32:52.513Z,2.90
2023-07-06T06:35:22.992Z,2.80
2023-07-06T06:37:50.315Z,2.70
2023-07-06T06:40:17.787Z,3.10
2023-07-06T06:42:44.653Z,2.90
2023-07-06T06:45:11.872Z,2.70
2023-07-06T06:47:38.766Z,2.80
2023-07-06T06:50:06.849Z,2.50
2023-07-06T06:52:35.934Z,2.60
2023-07-06T06:55:03.809Z,2.30
2023-07-06T06:57:32.146Z,3.00
2023-07-06T07:00:00.804Z,2.80
2023-07-06T07:02:28.569Z,2.80
2023-07-06T07:04:59.784Z,2.50
2023-07-06T07:07:27.287Z,2.90
2023-07-06T07:09:55.010Z,3.30
2023-07-06T07:12:22.202Z,2.80
2023-07-06T07:14:49.578Z,3.40
2023-07-06T07:17:16.418Z,2.90
2023-07-06T07:19:43.266Z,2.90
2023-07-06T07:22:10.250Z,3.00
2023-07-06T07:24:38.463Z,2.80
2023-07-06T07:27:06.078Z,2.30
2023-07-06T07:29:33.768Z,2.40
2023-07-06T07:32:02.875Z,2.30
2023-07-06T07:34:29.788Z,2.30
2023-07-06T07:36:58.303Z,2.50
2023-07-06T07:39:28.002Z,2.80
2023-07-06T07:41:55.228Z,2.30
2023-07-06T07:44:22.875Z,2.30
2023-07-06T07:46:49.799Z,2.30
2023-07-06T07:49:18.363Z,2.30
2023-07-06T07:51:45.164Z,2.30
2023-07-06T07:54:11.997Z,2.60
2023-07-06T07:56:38.914Z,2.70
2023-07-06T07:59:05.737Z,2.50
2023-07-06T08:01:33.498Z,2.30
2023-07-06T08:04:00.608Z,2.70
2023-07-06T08:06:27.597Z,2.40
2023-07-06T08:08:54.395Z,2.30
2023-07-06T08:11:24.555Z,2.90
2023-07-06T08:13:54.647Z,2.60
2023-07-06T08:16:23.162Z,2.30
2023-07-06T08:19:02.831Z,2.50
2023-07-06T08:21:45.697Z,2.50
2023-07-06T08:24:22.865Z,2.20
2023-07-06T08:26:51.116Z,2.60
2023-07-06T08:29:18.479Z,2.40
2023-07-06T08:31:47.229Z,2.10
2023-07-06T08:34:16.181Z,2.30
2023-07-06T08:36:43.086Z,2.50
2023-07-06T08:39:10.303Z,2.40
2023-07-06T08:41:43.194Z,2.60
2023-07-06T08:44:15.464Z,2.60
2023-07-06T08:46:47.162Z,2.20
2023-07-06T08:49:20.750Z,2.60
2023-07-06T08:51:49.412Z,2.70
2023-07-06T08:54:22.906Z,2.50
2023-07-06T08:56:50.961Z,3.30
2023-07-06T08:59:30.502Z,2.60
2023-07-06T09:01:57.365Z,2.80
2023-07-06T09:04:25.558Z,2.70
2023-07-06T09:06:56.891Z,2.60
2023-07-06T09:09:25.714Z,2.90
2023-07-06T09:11:52.864Z,2.90
2023-07-06T09:14:22.760Z,2.40
2023-07-06T09:16:57.200Z,2.90
2023-07-06T09:19:25.963Z,2.60
2023-07-06T09:21:58.629Z,3.00
2023-07-06T09:24:29.267Z,2.90
2023-07-06T09:27:02.602Z,2.90
2023-07-06T09:29:34.045Z,3.20
2023-07-06T09:32:14.695Z,3.10
2023-07-06T09:34:46.420Z,3.60
2023-07-06T09:37:16.814Z,3.10
2023-07-06T09:42:45.650Z,2.30
2023-07-06T09:45:22.298Z,2.30
2023-07-06T09:47:56.451Z,2.40
2023-07-06T09:50:33.047Z,2.00
2023-07-06T09:53:00.657Z,1.90
2023-07-06T09:55:31.142Z,1.90
2023-07-06T09:58:00.424Z,2.10
2023-07-06T10:00:36.774Z,1.90
2023-07-06T10:03:22.877Z,2.20
2023-07-06T10:05:57.369Z,2.10
2023-07-06T10:08:33.119Z,1.80
2023-07-06T10:11:13.678Z,1.90
2023-07-06T10:13:57.051Z,2.20
2023-07-06T10:19:17.319Z,2.30
2023-07-06T10:21:55.841Z,2.10
2023-07-06T10:24:40.325Z,2.10
2023-07-06T10:27:14.760Z,2.40
2023-07-06T10:29:47.255Z,2.00
2023-07-06T10:32:21.114Z,2.00
2023-07-06T10:34:55.033Z,2.00
2023-07-06T10:37:25.620Z,2.40
2023-07-06T10:39:59.838Z,2.30
2023-07-06T10:42:30.484Z,2.40
2023-07-06T10:45:00.160Z,2.50
2023-07-06T10:47:33.670Z,2.30
2023-07-06T10:50:13.879Z,2.60
2023-07-06T10:52:44.231Z,2.30
2023-07-06T10:55:28.444Z,2.20
2023-07-06T10:57:58.990Z,2.60
2023-07-06T11:00:38.712Z,2.60
2023-07-06T11:03:08.297Z,2.20
2023-07-06T11:05:37.757Z,2.30
2023-07-06T11:08:12.256Z,2.50
2023-07-06T11:10:44.070Z,2.20
2023-07-06T11:13:11.675Z,2.30
2023-07-06T11:15:50.232Z,2.50
2023-07-06T11:18:23.217Z,2.60
2023-07-06T11:20:56.244Z,2.60
2023-07-06T11:23:36.945Z,2.70
2023-07-06T11:26:10.267Z,2.60
2023-07-06T11:28:37.135Z,2.50
2023-07-06T11:31:28.353Z,2.30
2023-07-06T11:34:17.162Z,2.40
2023-07-06T11:36:58.026Z,2.70
2023-07-06T11:39:44.683Z,2.30
2023-07-06T11:42:33.048Z,2.40
2023-07-06T11:45:13.703Z,2.10
2023-07-06T11:47:54.787Z,2.20
2023-07-06T11:50:23.349Z,2.30
2023-07-06T11:53:10.450Z,2.20
2023-07-06T11:55:52.393Z,2.40
2023-07-06T11:58:37.774Z,2.60
2023-07-06T12:01:12.240Z,2.10
2023-07-06T12:03:39.442Z,2.40
2023-07-06T12:06:06.473Z,2.30
2023-07-06T12:08:36.549Z,2.50
2023-07-06T12:11:05.036Z,2.30
2023-07-06T12:13:35.985Z,1.90
2023-07-06T12:16:14.599Z,2.40
2023-07-06T12:18:43.548Z,2.20
2023-07-06T12:21:30.038Z,2.20
2023-07-06T12:24:02.329Z,2.10
2023-07-06T12:26:31.272Z,1.90
2023-07-06T12:29:00.747Z,2.10
2023-07-06T12:31:29.224Z,2.10
2023-07-06T12:33:58.760Z,2.30
2023-07-06T12:36:29.774Z,2.20
2023-07-06T12:39:01.650Z,1.90
2023-07-06T12:41:34.347Z,2.00
2023-07-06T12:44:02.200Z,2.20
2023-07-06T12:46:34.466Z,2.20
2023-07-06T12:49:06.908Z,2.50
2023-07-06T12:51:34.134Z,2.30
2023-07-06T12:54:03.829Z,2.00
2023-07-06T12:56:32.944Z,2.50
2023-07-06T12:59:02.781Z,2.40
2023-07-06T13:01:47.571Z,2.80
2023-07-06T13:04:15.388Z,2.30
2023-07-06T13:06:47.663Z,2.90
2023-07-06T13:09:20.226Z,2.70
2023-07-06T13:11:49.368Z,2.70
2023-07-06T13:14:18.821Z,2.70
2023-07-06T13:16:51.889Z,2.60
2023-07-06T13:19:18.730Z,2.90
2023-07-06T13:21:46.088Z,2.60
2023-07-06T13:24:20.524Z,3.40
2023-07-06T13:26:47.371Z,3.10
2023-07-06T13:29:18.104Z,3.90
2023-07-06T13:31:54.238Z,3.80
2023-07-06T13:34:24.569Z,4.00
2023-07-06T13:36:54.954Z,3.40
2023-07-06T13:39:21.995Z,3.20
2023-07-06T13:41:51.999Z,3.50
2023-07-06T13:44:20.478Z,2.80
2023-07-06T13:46:50.681Z,3.10
2023-07-06T13:49:18.738Z,3.20
2023-07-06T13:51:45.834Z,2.80
2023-07-06T13:54:14.400Z,2.80
2023-07-06T13:56:42.869Z,3.10
2023-07-06T13:59:10.303Z,3.00
2023-07-06T14:01:38.421Z,3.30
2023-07-06T14:04:07.996Z,3.10
2023-07-06T14:06:35.503Z,2.80
2023-07-06T14:09:02.310Z,3.10
2023-07-06T14:11:29.539Z,3.10
2023-07-06T14:13:57.239Z,2.80
2023-07-06T14:16:24.177Z,2.90
2023-07-06T14:18:51.026Z,3.10
2023-07-06T14:21:24.055Z,3.40
2023-07-06T14:23:52.812Z,3.20
2023-07-06T14:26:19.861Z,3.50
2023-07-06T14:28:51.076Z,3.40
2023-07-06T14:31:18.764Z,3.00
2023-07-06T14:33:46.773Z,3.30
2023-07-06T14:36:14.814Z,3.40
2023-07-06T14:38:42.019Z,3.00
2023-07-06T14:41:11.505Z,3.30
2023-07-06T14:43:38.335Z,3.10
2023-07-06T14:46:06.589Z,3.40
2023-07-06T14:48:33.953Z,3.40
2023-07-06T14:51:03.820Z,3.60
2023-07-06T14:53:31.958Z,3.70
2023-07-06T14:55:59.330Z,3.50
2023-07-06T14:58:28.489Z,3.60
2023-07-06T15:00:55.622Z,4.00
2023-07-06T15:03:23.295Z,5.40
2023-07-06T15:05:51.713Z,4.00
2023-07-06T15:08:18.622Z,4.10
2023-07-06T15:10:47.447Z,3.90
2023-07-06T15:13:15.717Z,4.40
2023-07-06T15:15:44.545Z,4.00
2023-07-06T15:18:14.580Z,4.20
2023-07-06T15:20:43.434Z,3.90
2023-07-06T15:23:10.511Z,4.20
2023-07-06T15:25:40.016Z,3.60
2023-07-06T15:28:07.335Z,3.90
2023-07-06T15:30:47.650Z,4.10
2023-07-06T15:33:17.250Z,4.30
2023-07-06T15:35:45.314Z,4.00
2023-07-06T15:38:13.790Z,4.60
2023-07-06T15:40:46.731Z,3.50
2023-07-06T15:43:14.613Z,3.80
2023-07-06T15:45:43.431Z,4.20
2023-07-06T15:48:10.707Z,3.70
2023-07-06T15:50:39.257Z,3.70
2023-07-06T15:53:08.228Z,6.00
2023-07-06T15:55:36.371Z,3.90
2023-07-06T15:58:04.436Z,4.10
2023-07-06T16:00:34.141Z,3.90
2023-07-06T16:03:01.335Z,4.00
2023-07-06T16:05:28.614Z,4.20
2023-07-06T16:07:55.683Z,3.50
2023-07-06T16:10:23.070Z,3.80
2023-07-06T16:12:50.134Z,3.90
2023-07-06T16:15:17.252Z,3.40
2023-07-06T16:17:44.430Z,3.70
2023-07-06T16:20:12.989Z,3.80
2023-07-06T16:22:39.920Z,4.10
2023-07-06T16:25:06.991Z,4.10
2023-07-06T16:27:34.013Z,4.50
2023-07-06T16:30:00.931Z,3.60
2023-07-06T16:32:27.805Z,3.70
2023-07-06T16:34:54.769Z,3.90
2023-07-06T16:37:21.755Z,4.30
2023-07-06T16:39:48.620Z,3.80
2023-07-06T16:42:15.602Z,4.10
2023-07-06T16:44:42.831Z,4.00
2023-07-06T16:47:09.863Z,3.60
2023-07-06T16:49:36.646Z,4.00
2023-07-06T16:52:03.579Z,4.00
2023-07-06T16:54:30.382Z,3.70
2023-07-06T16:56:57.185Z,3.80
2023-07-06T16:59:24.006Z,3.90
2023-07-06T17:01:52.697Z,4.00
2023-07-06T17:04:20.044Z,3.60
2023-07-06T17:06:46.847Z,4.00
2023-07-06T17:09:13.641Z,3.70
2023-07-06T17:11:40.585Z,3.50
2023-07-06T17:14:08.133Z,3.60
2023-07-06T17:16:35.178Z,3.60
2023-07-06T17:19:02.317Z,3.50
2023-07-06T17:21:29.158Z,3.50
2023-07-06T17:23:55.962Z,3.60
2023-07-06T17:26:22.774Z,3.50
2023-07-06T17:28:49.656Z,4.10
2023-07-06T17:31:17.353Z,3.20
2023-07-06T17:33:44.702Z,3.30
2023-07-06T17:36:12.539Z,3.50
2023-07-06T17:38:39.882Z,3.40
2023-07-06T17:41:09.694Z,3.40
2023-07-06T17:43:37.667Z,3.40
2023-07-06T17:46:04.976Z,3.40
2023-07-06T17:48:32.518Z,3.20
2023-07-06T17:51:01.468Z,3.10
2023-07-06T17:53:28.675Z,3.50
2023-07-06T17:55:57.162Z,3.40
2023-07-06T17:58:24.704Z,3.60
2023-07-06T18:00:53.837Z,3.50
2023-07-06T18:03:22.295Z,3.90
2023-07-06T18:05:50.624Z,4.20
2023-07-06T18:08:18.027Z,3.50
2023-07-06T18:10:45.306Z,4.90
2023-07-06T18:13:13.290Z,4.30
2023-07-06T18:15:48.158Z,3.80
2023-07-06T18:18:15.372Z,5.60
2023-07-06T18:20:45.092Z,3.60
2023-07-06T18:23:13.154Z,8.00
2023-07-06T18:25:44.261Z,4.50
2023-07-06T18:28:14.956Z,3.50
2023-07-06T18:30:41.875Z,3.30
2023-07-06T18:33:08.710Z,3.50
2023-07-06T18:35:35.788Z,2.80
2023-07-06T18:38:02.621Z,3.10
2023-07-06T18:40:29.588Z,3.30
2023-07-06T18:42:56.354Z,3.40
2023-07-06T18:45:36.659Z,3.60
2023-07-06T18:48:09.048Z,3.50
2023-07-06T18:50:37.610Z,3.30
2023-07-06T18:53:04.860Z,3.30
2023-07-06T18:55:31.693Z,3.20
2023-07-06T18:57:58.623Z,3.50
2023-07-06T19:00:25.454Z,3.90
2023-07-06T19:02:52.394Z,3.40
2023-07-06T19:05:19.282Z,3.40
2023-07-06T19:07:59.826Z,3.80
2023-07-06T19:10:29.174Z,3.30
2023-07-06T19:12:56.079Z,4.10
2023-07-06T19:15:22.919Z,3.40
2023-07-06T19:17:49.871Z,3.60
2023-07-06T19:20:16.959Z,3.60
2023-07-06T19:22:53.471Z,3.20
2023-07-06T19:25:20.541Z,3.30
2023-07-06T19:27:47.745Z,3.30
2023-07-06T19:30:14.881Z,3.10
2023-07-06T19:32:41.934Z,3.60
2023-07-06T19:35:09.368Z,3.70
2023-07-06T19:37:36.136Z,3.40
2023-07-06T19:40:03.257Z,3.80
2023-07-06T19:42:30.098Z,2.80
2023-07-06T19:44:56.888Z,3.40
2023-07-06T19:47:24.367Z,3.30
2023-07-06T19:49:51.337Z,3.40
2023-07-06T19:52:19.285Z,3.40
2023-07-06T19:54:46.114Z,3.60
2023-07-06T19:57:14.733Z,3.80
2023-07-06T19:59:41.967Z,3.80
2023-07-06T20:02:13.308Z,3.60
2023-07-06T20:04:42.231Z,3.40
2023-07-06T20:07:11.267Z,3.50
2023-07-06T20:09:40.493Z,4.30
2023-07-06T20:12:07.806Z,4.30
2023-07-06T20:14:34.619Z,4.80
2023-07-06T20:17:01.627Z,4.40
2023-07-06T20:19:28.541Z,4.70
2023-07-06T20:21:55.410Z,4.20
2023-07-06T20:24:22.305Z,3.80
2023-07-06T20:26:50.103Z,4.20
2023-07-06T20:29:17.004Z,4.10
2023-07-06T20:31:43.871Z,4.30
2023-07-06T20:34:10.664Z,4.40
2023-07-06T20:36:37.480Z,4.90
2023-07-06T20:39:04.293Z,5.60
2023-07-06T20:41:32.174Z,5.30
2023-07-06T20:43:59.008Z,4.50
2023-07-06T20:46:25.905Z,5.00
2023-07-06T20:48:52.776Z,5.20
2023-07-06T20:51:19.670Z,5.30
2023-07-06T20:53:46.470Z,4.90
2023-07-06T20:56:13.337Z,5.40
2023-07-06T20:58:40.671Z,5.40
2023-07-06T21:01:07.622Z,4.40
2023-07-06T21:03:36.363Z,4.40
2023-07-06T21:06:04.403Z,5.10
2023-07-06T21:08:31.417Z,4.50
2023-07-06T21:10:58.624Z,4.90
2023-07-06T21:13:25.954Z,4.50
2023-07-06T21:15:54.393Z,4.50
2023-07-06T21:18:21.613Z,4.70
2023-07-06T21:20:48.440Z,4.20
2023-07-06T21:23:15.446Z,4.80
2023-07-06T21:25:42.785Z,5.00
2023-07-06T21:28:14.016Z,4.80
2023-07-06T21:30:42.562Z,4.50
2023-07-06T21:33:09.772Z,4.70
2023-07-06T21:35:37.973Z,4.70
2023-07-06T21:38:08.669Z,4.80
2023-07-06T21:40:36.210Z,4.60
2023-07-06T21:43:03.459Z,4.40
2023-07-06T21:45:30.330Z,4.70
2023-07-06T21:47:58.094Z,4.40
2023-07-06T21:50:25.146Z,4.50
2023-07-06T21:52:52.100Z,4.40
2023-07-06T21:55:19.114Z,4.30
2023-07-06T21:57:45.936Z,4.60
2023-07-06T22:00:13.141Z,4.50
2023-07-06T22:02:44.701Z,4.20
2023-07-06T22:05:11.584Z,4.60
2023-07-06T22:07:38.429Z,3.80
2023-07-06T22:10:06.390Z,4.30
2023-07-06T22:12:33.264Z,4.20
2023-07-06T22:15:00.113Z,4.40
2023-07-06T22:17:26.968Z,4.40
2023-07-06T22:19:54.464Z,4.20
2023-07-06T22:22:21.299Z,4.30
2023-07-06T22:24:48.081Z,3.90
2023-07-06T22:27:15.246Z,3.80
2023-07-06T22:29:43.290Z,4.20
2023-07-06T22:32:10.225Z,4.30
2023-07-06T22:34:37.121Z,4.20
2023-07-06T22:37:04.359Z,4.60
2023-07-06T22:39:31.209Z,4.40
2023-07-06T22:41:58.566Z,4.20
2023-07-06T22:44:25.352Z,3.90
2023-07-06T22:46:52.804Z,4.60
2023-07-06T22:49:25.671Z,4.60
2023-07-06T22:51:57.095Z,4.60
2023-07-06T22:54:23.963Z,4.20
2023-07-06T22:56:50.791Z,4.80
2023-07-06T22:59:17.830Z,4.80
2023-07-06T23:01:45.349Z,4.40
2023-07-06T23:04:12.666Z,4.20
2023-07-06T23:06:39.552Z,3.90
2023-07-06T23:09:10.185Z,4.30
2023-07-06T23:11:37.367Z,4.60
2023-07-06T23:14:04.299Z,4.60
2023-07-06T23:16:33.220Z,4.50
2023-07-06T23:19:00.682Z,4.80
2023-07-06T23:21:27.601Z,4.80
2023-07-06T23:23:54.360Z,4.30
2023-07-06T23:26:24.862Z,4.10
2023-07-06T23:28:52.967Z,3.90
2023-07-06T23:31:29.366Z,4.50
2023-07-06T23:33:58.747Z,5.00
2023-07-06T23:36:27.095Z,5.30
2023-07-06T23:38:54.190Z,4.70
2023-07-06T23:41:22.745Z,5.00
2023-07-06T23:43:50.752Z,4.80
2023-07-06T23:46:20.172Z,4.70
2023-07-06T23:48:48.711Z,4.90
2023-07-06T23:51:17.218Z,5.30
2023-07-06T23:53:44.090Z,5.00
2023-07-06T23:56:10.908Z,5.20
2023-07-06T23:58:38.380Z,4.60
